sensor_id;sensor_type;location;lat;lon;timestamp;pressure;altitude;pressure_sealevel;temperature;humidity
27984;BME280;15317;50.360;8.726;2023-01-08T00:01:48;98702.88;;;6.95;100.00
27984;BME280;15317;50.360;8.726;2023-01-08T00:05:50;98706.31;;;7.05;100.00
27984;BME280;15317;50.360;8.726;2023-01-08T00:09:54;98695.34;;;7.07;100.00
27984;BME280;15317;50.360;8.726;2023-01-08T00:13:56;98689.31;;;7.13;100.00
27984;BME280;15317;50.360;8.726;2023-01-08T00:17:58;98684.28;;;7.18;100.00
27984;BME280;15317;50.360;8.726;2023-01-08T00:21:59;98687.38;;;7.23;100.00
27984;BME280;15317;50.360;8.726;2023-01-08T00:26:05;98668.78;;;7.20;100.00
27984;BME280;15317;50.360;8.726;2023-01-08T00:30:08;98675.34;;;7.18;100.00
27984;BME280;15317;50.360;8.726;2023-01-08T00:34:10;98677.38;;;7.16;100.00
27984;BME280;15317;50.360;8.726;2023-01-08T00:38:12;98675.66;;;7.14;100.00
27984;BME280;15317;50.360;8.726;2023-01-08T00:42:15;98680.22;;;7.14;100.00
27984;BME280;15317;50.360;8.726;2023-01-08T00:46:17;98665.72;;;7.15;100.00
27984;BME280;15317;50.360;8.726;2023-01-08T00:50:19;98661.16;;;7.16;100.00
27984;BME280;15317;50.360;8.726;2023-01-08T00:54:21;98649.66;;;7.13;100.00
27984;BME280;15317;50.360;8.726;2023-01-08T00:58:25;98669.41;;;7.14;100.00
27984;BME280;15317;50.360;8.726;2023-01-08T01:02:27;98668.34;;;7.07;100.00
27984;BME280;15317;50.360;8.726;2023-01-08T01:06:29;98645.41;;;7.11;100.00
27984;BME280;15317;50.360;8.726;2023-01-08T01:10:31;98644.75;;;7.09;100.00
27984;BME280;15317;50.360;8.726;2023-01-08T01:14:35;98642.50;;;7.04;100.00
27984;BME280;15317;50.360;8.726;2023-01-08T01:18:38;98639.66;;;7.06;100.00
27984;BME280;15317;50.360;8.726;2023-01-08T01:22:40;98640.19;;;7.09;100.00
27984;BME280;15317;50.360;8.726;2023-01-08T01:26:42;98645.91;;;7.06;100.00
27984;BME280;15317;50.360;8.726;2023-01-08T01:30:52;98663.59;;;7.01;100.00
27984;BME280;15317;50.360;8.726;2023-01-08T01:34:54;98651.81;;;7.10;100.00
27984;BME280;15317;50.360;8.726;2023-01-08T01:38:59;98654.53;;;7.10;100.00
27984;BME280;15317;50.360;8.726;2023-01-08T01:43:02;98660.31;;;7.15;100.00
27984;BME280;15317;50.360;8.726;2023-01-08T01:47:19;98665.09;;;7.21;100.00
27984;BME280;15317;50.360;8.726;2023-01-08T01:51:24;98660.47;;;7.39;100.00
27984;BME280;15317;50.360;8.726;2023-01-08T01:55:30;98656.81;;;7.48;100.00
27984;BME280;15317;50.360;8.726;2023-01-08T01:59:32;98647.44;;;7.69;100.00
27984;BME280;15317;50.360;8.726;2023-01-08T02:03:38;98645.44;;;7.79;100.00
27984;BME280;15317;50.360;8.726;2023-01-08T02:07:46;98640.75;;;7.81;100.00
27984;BME280;15317;50.360;8.726;2023-01-08T02:11:53;98636.69;;;7.85;100.00
27984;BME280;15317;50.360;8.726;2023-01-08T02:16:15;98631.81;;;7.88;100.00
27984;BME280;15317;50.360;8.726;2023-01-08T02:20:26;98629.81;;;7.90;100.00
27984;BME280;15317;50.360;8.726;2023-01-08T02:24:42;98627.75;;;7.92;100.00
27984;BME280;15317;50.360;8.726;2023-01-08T02:28:52;98631.31;;;7.93;100.00
27984;BME280;15317;50.360;8.726;2023-01-08T02:32:55;98635.91;;;8.01;100.00
27984;BME280;15317;50.360;8.726;2023-01-08T02:36:58;98626.44;;;7.97;100.00
27984;BME280;15317;50.360;8.726;2023-01-08T02:41:04;98616.16;;;8.08;100.00
27984;BME280;15317;50.360;8.726;2023-01-08T02:45:20;98602.28;;;8.03;100.00
27984;BME280;15317;50.360;8.726;2023-01-08T02:49:29;98590.09;;;7.99;100.00
27984;BME280;15317;50.360;8.726;2023-01-08T02:53:35;98586.06;;;8.03;100.00
27984;BME280;15317;50.360;8.726;2023-01-08T02:57:38;98583.03;;;7.98;100.00
27984;BME280;15317;50.360;8.726;2023-01-08T03:01:42;98579.63;;;7.96;100.00
27984;BME280;15317;50.360;8.726;2023-01-08T03:05:47;98579.63;;;7.96;100.00
27984;BME280;15317;50.360;8.726;2023-01-08T03:09:50;98564.72;;;7.92;100.00
27984;BME280;15317;50.360;8.726;2023-01-08T03:13:56;98562.38;;;7.89;100.00
27984;BME280;15317;50.360;8.726;2023-01-08T03:18:06;98566.09;;;7.88;100.00
27984;BME280;15317;50.360;8.726;2023-01-08T03:22:13;98573.50;;;7.86;100.00
27984;BME280;15317;50.360;8.726;2023-01-08T03:26:20;98563.03;;;7.83;100.00
27984;BME280;15317;50.360;8.726;2023-01-08T03:30:25;98559.78;;;7.71;100.00
27984;BME280;15317;50.360;8.726;2023-01-08T03:34:31;98553.88;;;7.68;100.00
27984;BME280;15317;50.360;8.726;2023-01-08T03:38:39;98547.09;;;7.64;100.00
27984;BME280;15317;50.360;8.726;2023-01-08T03:42:43;98543.03;;;7.60;100.00
27984;BME280;15317;50.360;8.726;2023-01-08T03:46:47;98539.81;;;7.56;100.00
27984;BME280;15317;50.360;8.726;2023-01-08T03:50:53;98539.13;;;7.54;100.00
27984;BME280;15317;50.360;8.726;2023-01-08T03:54:55;98539.63;;;7.49;100.00
27984;BME280;15317;50.360;8.726;2023-01-08T03:58:57;98525.94;;;7.43;100.00
27984;BME280;15317;50.360;8.726;2023-01-08T04:02:59;98526.78;;;7.43;100.00
27984;BME280;15317;50.360;8.726;2023-01-08T04:07:02;98516.28;;;7.40;100.00
27984;BME280;15317;50.360;8.726;2023-01-08T04:11:04;98513.91;;;7.37;100.00
27984;BME280;15317;50.360;8.726;2023-01-08T04:15:07;98514.22;;;7.34;100.00
27984;BME280;15317;50.360;8.726;2023-01-08T04:19:10;98515.09;;;7.35;100.00
27984;BME280;15317;50.360;8.726;2023-01-08T04:23:13;98503.44;;;7.34;100.00
27984;BME280;15317;50.360;8.726;2023-01-08T04:27:16;98507.13;;;7.33;100.00
27984;BME280;15317;50.360;8.726;2023-01-08T04:31:18;98501.44;;;7.36;100.00
27984;BME280;15317;50.360;8.726;2023-01-08T04:35:20;98498.22;;;7.41;100.00
27984;BME280;15317;50.360;8.726;2023-01-08T04:39:23;98507.88;;;7.43;100.00
27984;BME280;15317;50.360;8.726;2023-01-08T04:43:26;98503.78;;;7.39;100.00
27984;BME280;15317;50.360;8.726;2023-01-08T04:47:28;98492.28;;;7.37;100.00
27984;BME280;15317;50.360;8.726;2023-01-08T04:51:30;98497.34;;;7.32;100.00
27984;BME280;15317;50.360;8.726;2023-01-08T04:55:33;98490.94;;;7.33;100.00
27984;BME280;15317;50.360;8.726;2023-01-08T04:59:35;98481.81;;;7.34;100.00
27984;BME280;15317;50.360;8.726;2023-01-08T05:03:37;98488.53;;;7.30;100.00
27984;BME280;15317;50.360;8.726;2023-01-08T05:07:39;98494.31;;;7.35;100.00
27984;BME280;15317;50.360;8.726;2023-01-08T05:11:43;98480.66;;;7.37;100.00
27984;BME280;15317;50.360;8.726;2023-01-08T05:15:44;98482.84;;;7.33;100.00
27984;BME280;15317;50.360;8.726;2023-01-08T05:19:46;98481.97;;;7.33;100.00
27984;BME280;15317;50.360;8.726;2023-01-08T05:23:48;98484.53;;;7.34;100.00
27984;BME280;15317;50.360;8.726;2023-01-08T05:27:52;98483.69;;;7.34;100.00
27984;BME280;15317;50.360;8.726;2023-01-08T05:31:54;98485.22;;;7.36;100.00
27984;BME280;15317;50.360;8.726;2023-01-08T05:35:56;98490.09;;;7.33;100.00
27984;BME280;15317;50.360;8.726;2023-01-08T05:39:58;98466.31;;;7.36;100.00
27984;BME280;15317;50.360;8.726;2023-01-08T05:44:01;98474.41;;;7.36;100.00
27984;BME280;15317;50.360;8.726;2023-01-08T05:48:04;98474.06;;;7.39;100.00
27984;BME280;15317;50.360;8.726;2023-01-08T05:52:06;98481.16;;;7.40;100.00
27984;BME280;15317;50.360;8.726;2023-01-08T05:56:10;98478.78;;;7.37;100.00
27984;BME280;15317;50.360;8.726;2023-01-08T06:00:14;98472.38;;;7.38;100.00
27984;BME280;15317;50.360;8.726;2023-01-08T06:04:17;98474.41;;;7.44;100.00
27984;BME280;15317;50.360;8.726;2023-01-08T06:08:18;98464.63;;;7.43;100.00
27984;BME280;15317;50.360;8.726;2023-01-08T06:12:20;98477.63;;;7.48;100.00
27984;BME280;15317;50.360;8.726;2023-01-08T06:16:24;98471.56;;;7.46;100.00
27984;BME280;15317;50.360;8.726;2023-01-08T06:20:26;98474.25;;;7.46;100.00
27984;BME280;15317;50.360;8.726;2023-01-08T06:24:28;98465.13;;;7.47;100.00
27984;BME280;15317;50.360;8.726;2023-01-08T06:28:30;98468.00;;;7.45;100.00
27984;BME280;15317;50.360;8.726;2023-01-08T06:32:34;98475.09;;;7.46;100.00
27984;BME280;15317;50.360;8.726;2023-01-08T06:36:35;98468.69;;;7.47;100.00
27984;BME280;15317;50.360;8.726;2023-01-08T06:40:37;98477.97;;;7.45;100.00
27984;BME280;15317;50.360;8.726;2023-01-08T06:44:39;98478.16;;;7.43;100.00
27984;BME280;15317;50.360;8.726;2023-01-08T06:48:43;98479.81;;;7.44;100.00
27984;BME280;15317;50.360;8.726;2023-01-08T06:52:51;98477.63;;;7.48;100.00
27984;BME280;15317;50.360;8.726;2023-01-08T06:56:53;98479.66;;;7.46;100.00
27984;BME280;15317;50.360;8.726;2023-01-08T07:00:55;98482.19;;;7.47;100.00
27984;BME280;15317;50.360;8.726;2023-01-08T07:05:00;98482.50;;;7.44;100.00
27984;BME280;15317;50.360;8.726;2023-01-08T07:09:02;98488.75;;;7.45;100.00
27984;BME280;15317;50.360;8.726;2023-01-08T07:13:04;98493.31;;;7.44;100.00
27984;BME280;15317;50.360;8.726;2023-01-08T07:17:07;98496.41;;;7.49;100.00
27984;BME280;15317;50.360;8.726;2023-01-08T07:21:11;98481.84;;;7.42;100.00
27984;BME280;15317;50.360;8.726;2023-01-08T07:25:13;98498.06;;;7.42;100.00
27984;BME280;15317;50.360;8.726;2023-01-08T07:29:15;98503.09;;;7.37;100.00
27984;BME280;15317;50.360;8.726;2023-01-08T07:33:17;98506.47;;;7.39;100.00
27984;BME280;15317;50.360;8.726;2023-01-08T07:37:20;98504.63;;;7.40;100.00
27984;BME280;15317;50.360;8.726;2023-01-08T07:41:22;98505.78;;;7.37;100.00
27984;BME280;15317;50.360;8.726;2023-01-08T07:45:24;98502.28;;;7.37;100.00
27984;BME280;15317;50.360;8.726;2023-01-08T07:49:26;98506.47;;;7.39;100.00
27984;BME280;15317;50.360;8.726;2023-01-08T07:53:29;98511.88;;;7.39;100.00
27984;BME280;15317;50.360;8.726;2023-01-08T07:57:31;98494.97;;;7.37;100.00
27984;BME280;15317;50.360;8.726;2023-01-08T08:01:33;98491.97;;;7.40;100.00
27984;BME280;15317;50.360;8.726;2023-01-08T08:05:35;98491.66;;;7.43;100.00
27984;BME280;15317;50.360;8.726;2023-01-08T08:09:39;98494.34;;;7.43;100.00
27984;BME280;15317;50.360;8.726;2023-01-08T08:13:41;98494.69;;;7.48;100.00
27984;BME280;15317;50.360;8.726;2023-01-08T08:17:45;98501.44;;;7.52;100.00
27984;BME280;15317;50.360;8.726;2023-01-08T08:21:47;98498.41;;;7.47;100.00
27984;BME280;15317;50.360;8.726;2023-01-08T08:25:50;98493.00;;;7.47;100.00
27984;BME280;15317;50.360;8.726;2023-01-08T08:29:52;98477.63;;;7.48;100.00
27984;BME280;15317;50.360;8.726;2023-01-08T08:33:55;98479.53;;;7.56;100.00
27984;BME280;15317;50.360;8.726;2023-01-08T08:37:57;98478.50;;;7.48;100.00
27984;BME280;15317;50.360;8.726;2023-01-08T08:42:00;98478.66;;;7.47;100.00
27984;BME280;15317;50.360;8.726;2023-01-08T08:46:02;98489.78;;;7.44;100.00
27984;BME280;15317;50.360;8.726;2023-01-08T08:50:05;98490.31;;;7.47;100.00
27984;BME280;15317;50.360;8.726;2023-01-08T08:54:08;98488.44;;;7.48;100.00
27984;BME280;15317;50.360;8.726;2023-01-08T08:58:12;98485.06;;;7.46;100.00
27984;BME280;15317;50.360;8.726;2023-01-08T09:02:14;98484.72;;;7.41;100.00
27984;BME280;15317;50.360;8.726;2023-01-08T09:06:16;98489.97;;;7.42;100.00
27984;BME280;15317;50.360;8.726;2023-01-08T09:10:18;98493.69;;;7.49;100.00
27984;BME280;15317;50.360;8.726;2023-01-08T09:14:21;98482.34;;;7.46;100.00
27984;BME280;15317;50.360;8.726;2023-01-08T09:18:23;98489.97;;;7.42;100.00
27984;BME280;15317;50.360;8.726;2023-01-08T09:22:25;98481.16;;;7.40;100.00
27984;BME280;15317;50.360;8.726;2023-01-08T09:26:27;98486.06;;;7.45;100.00
27984;BME280;15317;50.360;8.726;2023-01-08T09:30:32;98494.34;;;7.43;100.00
27984;BME280;15317;50.360;8.726;2023-01-08T09:34:34;98483.38;;;7.45;100.00
27984;BME280;15317;50.360;8.726;2023-01-08T09:38:36;98496.53;;;7.40;100.00
27984;BME280;15317;50.360;8.726;2023-01-08T09:42:38;98480.47;;;7.38;100.00
27984;BME280;15317;50.360;8.726;2023-01-08T09:46:43;98487.06;;;7.44;100.00
27984;BME280;15317;50.360;8.726;2023-01-08T09:50:46;98487.59;;;7.47;100.00
27984;BME280;15317;50.360;8.726;2023-01-08T09:54:48;98478.50;;;7.48;100.00
27984;BME280;15317;50.360;8.726;2023-01-08T09:58:51;98477.81;;;7.54;100.00
27984;BME280;15317;50.360;8.726;2023-01-08T10:02:56;98467.72;;;7.57;100.00
27984;BME280;15317;50.360;8.726;2023-01-08T10:07:04;98470.06;;;7.60;100.00
27984;BME280;15317;50.360;8.726;2023-01-08T10:11:08;98468.38;;;7.67;100.00
27984;BME280;15317;50.360;8.726;2023-01-08T10:15:13;98470.91;;;7.60;100.00
27984;BME280;15317;50.360;8.726;2023-01-08T10:19:17;98469.75;;;7.63;100.00
27984;BME280;15317;50.360;8.726;2023-01-08T10:23:20;98468.22;;;7.68;100.00
27984;BME280;15317;50.360;8.726;2023-01-08T10:27:22;98460.97;;;7.69;100.00
27984;BME280;15317;50.360;8.726;2023-01-08T10:31:24;98447.44;;;7.69;100.00
27984;BME280;15317;50.360;8.726;2023-01-08T10:35:32;98433.09;;;7.76;100.00
27984;BME280;15317;50.360;8.726;2023-01-08T10:39:35;98419.22;;;7.71;100.00
27984;BME280;15317;50.360;8.726;2023-01-08T10:43:43;98415.19;;;7.75;100.00
27984;BME280;15317;50.360;8.726;2023-01-08T10:47:54;98415.38;;;7.82;100.00
27984;BME280;15317;50.360;8.726;2023-01-08T10:51:59;98422.81;;;7.88;100.00
27984;BME280;15317;50.360;8.726;2023-01-08T10:56:03;98421.09;;;7.79;100.00
27984;BME280;15317;50.360;8.726;2023-01-08T11:00:21;98430.06;;;7.79;100.00
27984;BME280;15317;50.360;8.726;2023-01-08T11:04:27;98426.50;;;7.79;100.00
27984;BME280;15317;50.360;8.726;2023-01-08T11:08:33;98400.84;;;7.83;100.00
27984;BME280;15317;50.360;8.726;2023-01-08T11:12:37;98387.97;;;7.85;100.00
27984;BME280;15317;50.360;8.726;2023-01-08T11:16:40;98389.03;;;7.84;100.00
27984;BME280;15317;50.360;8.726;2023-01-08T11:20:43;98384.28;;;7.94;100.00
27984;BME280;15317;50.360;8.726;2023-01-08T11:24:48;98382.75;;;7.91;100.00
27984;BME280;15317;50.360;8.726;2023-01-08T11:28:56;98384.28;;;8.02;100.00
27984;BME280;15317;50.360;8.726;2023-01-08T11:33:04;98383.09;;;8.05;100.00
27984;BME280;15317;50.360;8.726;2023-01-08T11:37:10;98369.06;;;8.09;100.00
27984;BME280;15317;50.360;8.726;2023-01-08T11:41:29;98359.56;;;8.05;100.00
27984;BME280;15317;50.360;8.726;2023-01-08T11:45:42;98340.66;;;8.05;100.00
27984;BME280;15317;50.360;8.726;2023-01-08T11:50:01;98342.00;;;8.09;100.00
27984;BME280;15317;50.360;8.726;2023-01-08T11:54:14;98323.06;;;8.17;100.00
27984;BME280;15317;50.360;8.726;2023-01-08T11:58:29;98320.69;;;8.22;100.00
27984;BME280;15317;50.360;8.726;2023-01-08T12:02:46;98332.81;;;8.26;100.00
27984;BME280;15317;50.360;8.726;2023-01-08T12:06:58;98311.88;;;8.28;100.00
27984;BME280;15317;50.360;8.726;2023-01-08T12:11:11;98287.88;;;8.25;100.00
27984;BME280;15317;50.360;8.726;2023-01-08T12:15:23;98281.44;;;8.35;100.00
27984;BME280;15317;50.360;8.726;2023-01-08T12:19:40;98284.13;;;8.35;100.00
27984;BME280;15317;50.360;8.726;2023-01-08T12:23:57;98282.94;;;8.45;100.00
27984;BME280;15317;50.360;8.726;2023-01-08T12:28:14;98287.59;;;8.59;100.00
27984;BME280;15317;50.360;8.726;2023-01-08T12:32:24;98274.22;;;8.66;100.00
27984;BME280;15317;50.360;8.726;2023-01-08T12:36:32;98267.31;;;8.55;100.00
27984;BME280;15317;50.360;8.726;2023-01-08T12:40:39;98274.88;;;8.60;100.00
27984;BME280;15317;50.360;8.726;2023-01-08T12:44:43;98268.31;;;8.54;100.00
27984;BME280;15317;50.360;8.726;2023-01-08T12:48:49;98265.47;;;8.48;100.00
27984;BME280;15317;50.360;8.726;2023-01-08T12:52:54;98262.59;;;8.49;100.00
27984;BME280;15317;50.360;8.726;2023-01-08T12:57:04;98263.16;;;8.45;100.00
27984;BME280;15317;50.360;8.726;2023-01-08T13:01:23;98254.53;;;8.41;100.00
27984;BME280;15317;50.360;8.726;2023-01-08T13:05:31;98253.69;;;8.41;100.00
27984;BME280;15317;50.360;8.726;2023-01-08T13:09:33;98245.25;;;8.36;100.00
27984;BME280;15317;50.360;8.726;2023-01-08T13:13:38;98230.72;;;8.37;100.00
27984;BME280;15317;50.360;8.726;2023-01-08T13:17:46;98224.47;;;8.28;100.00
27984;BME280;15317;50.360;8.726;2023-01-08T13:21:52;98227.16;;;8.28;100.00
27984;BME280;15317;50.360;8.726;2023-01-08T13:25:56;98236.50;;;8.25;100.00
27984;BME280;15317;50.360;8.726;2023-01-08T13:29:59;98242.72;;;8.26;100.00
27984;BME280;15317;50.360;8.726;2023-01-08T13:34:01;98236.50;;;8.25;100.00
27984;BME280;15317;50.360;8.726;2023-01-08T13:38:12;98227.69;;;8.23;100.00
27984;BME280;15317;50.360;8.726;2023-01-08T13:42:21;98228.72;;;8.30;100.00
27984;BME280;15317;50.360;8.726;2023-01-08T13:46:24;98216.22;;;8.21;100.00
27984;BME280;15317;50.360;8.726;2023-01-08T13:50:26;98224.00;;;8.16;100.00
27984;BME280;15317;50.360;8.726;2023-01-08T13:54:33;98203.56;;;8.14;100.00
27984;BME280;15317;50.360;8.726;2023-01-08T13:58:42;98194.56;;;8.21;100.00
27984;BME280;15317;50.360;8.726;2023-01-08T14:02:46;98202.69;;;8.21;100.00
27984;BME280;15317;50.360;8.726;2023-01-08T14:06:50;98194.22;;;8.24;100.00
27984;BME280;15317;50.360;8.726;2023-01-08T14:10:53;98196.59;;;8.19;100.00
27984;BME280;15317;50.360;8.726;2023-01-08T14:14:56;98204.50;;;8.29;100.00
27984;BME280;15317;50.360;8.726;2023-01-08T14:19:00;98200.97;;;8.28;100.00
27984;BME280;15317;50.360;8.726;2023-01-08T14:23:09;98210.75;;;8.29;100.00
27984;BME280;15317;50.360;8.726;2023-01-08T14:27:24;98196.56;;;8.27;100.00
27984;BME280;15317;50.360;8.726;2023-01-08T14:31:27;98198.09;;;8.30;100.00
27984;BME280;15317;50.360;8.726;2023-01-08T14:35:32;98185.06;;;8.33;100.00
27984;BME280;15317;50.360;8.726;2023-01-08T14:39:35;98190.13;;;8.28;100.00
27984;BME280;15317;50.360;8.726;2023-01-08T14:43:41;98178.00;;;8.24;100.00
27984;BME280;15317;50.360;8.726;2023-01-08T14:47:46;98188.28;;;8.29;100.00
27984;BME280;15317;50.360;8.726;2023-01-08T14:51:49;98184.44;;;8.23;100.00
27984;BME280;15317;50.360;8.726;2023-01-08T14:55:54;98173.44;;;8.25;100.00
27984;BME280;15317;50.360;8.726;2023-01-08T14:59:59;98175.09;;;8.26;100.00
27984;BME280;15317;50.360;8.726;2023-01-08T15:04:07;98161.78;;;8.24;100.00
27984;BME280;15317;50.360;8.726;2023-01-08T15:08:23;98168.38;;;8.22;100.00
27984;BME280;15317;50.360;8.726;2023-01-08T15:12:26;98155.38;;;8.17;100.00
27984;BME280;15317;50.360;8.726;2023-01-08T15:16:33;98149.13;;;8.17;100.00
27984;BME280;15317;50.360;8.726;2023-01-08T15:20:38;98161.13;;;8.14;100.00
27984;BME280;15317;50.360;8.726;2023-01-08T15:24:42;98148.28;;;8.16;100.00
27984;BME280;15317;50.360;8.726;2023-01-08T15:28:49;98141.53;;;8.12;100.00
27984;BME280;15317;50.360;8.726;2023-01-08T15:33:05;98140.22;;;8.08;100.00
27984;BME280;15317;50.360;8.726;2023-01-08T15:37:07;98134.47;;;8.11;100.00
27984;BME280;15317;50.360;8.726;2023-01-08T15:41:09;98140.72;;;8.12;100.00
27984;BME280;15317;50.360;8.726;2023-01-08T15:45:14;98135.47;;;8.10;100.00
27984;BME280;15317;50.360;8.726;2023-01-08T15:49:18;98146.28;;;8.10;100.00
27984;BME280;15317;50.360;8.726;2023-01-08T15:53:20;98146.47;;;8.09;100.00
27984;BME280;15317;50.360;8.726;2023-01-08T15:57:23;98138.00;;;8.12;100.00
27984;BME280;15317;50.360;8.726;2023-01-08T16:01:26;98127.84;;;8.14;100.00
27984;BME280;15317;50.360;8.726;2023-01-08T16:05:30;98124.00;;;8.08;100.00
27984;BME280;15317;50.360;8.726;2023-01-08T16:09:32;98119.91;;;8.12;100.00
27984;BME280;15317;50.360;8.726;2023-01-08T16:13:34;98121.59;;;8.13;100.00
27984;BME280;15317;50.360;8.726;2023-01-08T16:17:36;98120.34;;;8.24;100.00
27984;BME280;15317;50.360;8.726;2023-01-08T16:21:40;98120.34;;;8.32;100.00
27984;BME280;15317;50.360;8.726;2023-01-08T16:25:46;98118.97;;;8.28;100.00
27984;BME280;15317;50.360;8.726;2023-01-08T16:29:48;98112.41;;;8.30;100.00
27984;BME280;15317;50.360;8.726;2023-01-08T16:33:50;98112.69;;;8.36;100.00
27984;BME280;15317;50.360;8.726;2023-01-08T16:37:53;98113.03;;;8.32;100.00
27984;BME280;15317;50.360;8.726;2023-01-08T16:41:56;98101.59;;;8.30;100.00
27984;BME280;15317;50.360;8.726;2023-01-08T16:45:58;98103.97;;;8.25;100.00
27984;BME280;15317;50.360;8.726;2023-01-08T16:50:03;98096.50;;;8.27;100.00
27984;BME280;15317;50.360;8.726;2023-01-08T16:54:09;98109.38;;;8.25;100.00
27984;BME280;15317;50.360;8.726;2023-01-08T16:58:12;98101.91;;;8.27;100.00
27984;BME280;15317;50.360;8.726;2023-01-08T17:02:14;98095.00;;;8.25;100.00
27984;BME280;15317;50.360;8.726;2023-01-08T17:06:16;98080.97;;;8.21;100.00
27984;BME280;15317;50.360;8.726;2023-01-08T17:10:20;98078.28;;;8.21;100.00
27984;BME280;15317;50.360;8.726;2023-01-08T17:14:22;98070.88;;;8.15;100.00
27984;BME280;15317;50.360;8.726;2023-01-08T17:18:24;98072.44;;;8.10;100.00
27984;BME280;15317;50.360;8.726;2023-01-08T17:22:26;98070.25;;;8.05;100.00
27984;BME280;15317;50.360;8.726;2023-01-08T17:26:30;98057.28;;;8.01;100.00
27984;BME280;15317;50.360;8.726;2023-01-08T17:30:32;98046.00;;;7.97;100.00
27984;BME280;15317;50.360;8.726;2023-01-08T17:34:33;98055.47;;;7.93;100.00
27984;BME280;15317;50.360;8.726;2023-01-08T17:38:35;98054.16;;;7.89;100.00
27984;BME280;15317;50.360;8.726;2023-01-08T17:42:39;98047.78;;;7.82;100.00
27984;BME280;15317;50.360;8.726;2023-01-08T17:46:42;98042.06;;;7.77;100.00
27984;BME280;15317;50.360;8.726;2023-01-08T17:50:44;98032.97;;;7.70;100.00
27984;BME280;15317;50.360;8.726;2023-01-08T17:54:47;98030.78;;;7.65;100.00
27984;BME280;15317;50.360;8.726;2023-01-08T17:58:50;98034.38;;;7.58;100.00
27984;BME280;15317;50.360;8.726;2023-01-08T18:02:52;98032.72;;;7.57;100.00
27984;BME280;15317;50.360;8.726;2023-01-08T18:06:54;98024.41;;;7.58;100.00
27984;BME280;15317;50.360;8.726;2023-01-08T18:10:59;98028.97;;;7.58;100.00
27984;BME280;15317;50.360;8.726;2023-01-08T18:15:03;98024.91;;;7.62;100.00
27984;BME280;15317;50.360;8.726;2023-01-08T18:19:08;98018.50;;;7.63;100.00
27984;BME280;15317;50.360;8.726;2023-01-08T18:23:10;98011.41;;;7.62;100.00
27984;BME280;15317;50.360;8.726;2023-01-08T18:27:12;97998.91;;;7.61;100.00
27984;BME280;15317;50.360;8.726;2023-01-08T18:31:15;97997.88;;;7.62;100.00
27984;BME280;15317;50.360;8.726;2023-01-08T18:35:17;98003.28;;;7.62;100.00
27984;BME280;15317;50.360;8.726;2023-01-08T18:39:19;97992.81;;;7.59;100.00
27984;BME280;15317;50.360;8.726;2023-01-08T18:43:22;97984.94;;;7.57;100.00
27984;BME280;15317;50.360;8.726;2023-01-08T18:47:26;97976.63;;;7.59;100.00
27984;BME280;15317;50.360;8.726;2023-01-08T18:51:28;97983.41;;;7.54;100.00
27984;BME280;15317;50.360;8.726;2023-01-08T18:55:30;97981.03;;;7.51;100.00
27984;BME280;15317;50.360;8.726;2023-01-08T18:59:32;97980.75;;;7.46;100.00
27984;BME280;15317;50.360;8.726;2023-01-08T19:03:36;97983.63;;;7.45;100.00
27984;BME280;15317;50.360;8.726;2023-01-08T19:07:38;97981.75;;;7.45;100.00
27984;BME280;15317;50.360;8.726;2023-01-08T19:11:41;97974.03;;;7.42;100.00
27984;BME280;15317;50.360;8.726;2023-01-08T19:15:43;97976.06;;;7.40;100.00
27984;BME280;15317;50.360;8.726;2023-01-08T19:19:46;97980.78;;;7.38;100.00
27984;BME280;15317;50.360;8.726;2023-01-08T19:23:48;97981.63;;;7.39;100.00
27984;BME280;15317;50.360;8.726;2023-01-08T19:27:50;97963.94;;;7.36;100.00
27984;BME280;15317;50.360;8.726;2023-01-08T19:31:52;97975.75;;;7.35;100.00
27984;BME280;15317;50.360;8.726;2023-01-08T19:35:59;97961.88;;;7.38;100.00
27984;BME280;15317;50.360;8.726;2023-01-08T19:40:01;97961.56;;;7.33;100.00
27984;BME280;15317;50.360;8.726;2023-01-08T19:44:05;97948.75;;;7.35;100.00
27984;BME280;15317;50.360;8.726;2023-01-08T19:48:08;97946.38;;;7.32;100.00
27984;BME280;15317;50.360;8.726;2023-01-08T19:52:11;97929.16;;;7.33;100.00
27984;BME280;15317;50.360;8.726;2023-01-08T19:56:13;97916.69;;;7.32;100.00
27984;BME280;15317;50.360;8.726;2023-01-08T20:00:16;97915.00;;;7.31;100.00
27984;BME280;15317;50.360;8.726;2023-01-08T20:04:21;97895.44;;;7.29;100.00
27984;BME280;15317;50.360;8.726;2023-01-08T20:08:25;97909.59;;;7.31;100.00
27984;BME280;15317;50.360;8.726;2023-01-08T20:12:27;97895.91;;;7.33;100.00
27984;BME280;15317;50.360;8.726;2023-01-08T20:16:29;97883.09;;;7.35;100.00
27984;BME280;15317;50.360;8.726;2023-01-08T20:20:31;97869.75;;;7.33;100.00
27984;BME280;15317;50.360;8.726;2023-01-08T20:24:34;97863.50;;;7.33;100.00
27984;BME280;15317;50.360;8.726;2023-01-08T20:28:38;97850.00;;;7.33;100.00
27984;BME280;15317;50.360;8.726;2023-01-08T20:32:40;97845.16;;;7.28;100.00
27984;BME280;15317;50.360;8.726;2023-01-08T20:36:43;97855.56;;;7.31;100.00
27984;BME280;15317;50.360;8.726;2023-01-08T20:40:49;97847.69;;;7.30;100.00
27984;BME280;15317;50.360;8.726;2023-01-08T20:44:51;97844.78;;;7.31;100.00
27984;BME280;15317;50.360;8.726;2023-01-08T20:48:54;97844.78;;;7.31;100.00
27984;BME280;15317;50.360;8.726;2023-01-08T20:52:56;97834.81;;;7.32;100.00
27984;BME280;15317;50.360;8.726;2023-01-08T20:56:59;97824.84;;;7.32;100.00
27984;BME280;15317;50.360;8.726;2023-01-08T21:01:05;97829.91;;;7.35;100.00
27984;BME280;15317;50.360;8.726;2023-01-08T21:05:08;97821.16;;;7.33;100.00
27984;BME280;15317;50.360;8.726;2023-01-08T21:09:10;97822.66;;;7.36;100.00
27984;BME280;15317;50.360;8.726;2023-01-08T21:13:15;97816.41;;;7.35;100.00
27984;BME280;15317;50.360;8.726;2023-01-08T21:17:17;97813.34;;;7.38;100.00
27984;BME280;15317;50.360;8.726;2023-01-08T21:21:20;97793.78;;;7.36;100.00
27984;BME280;15317;50.360;8.726;2023-01-08T21:25:23;97783.63;;;7.38;100.00
27984;BME280;15317;50.360;8.726;2023-01-08T21:29:27;97783.00;;;7.36;100.00
27984;BME280;15317;50.360;8.726;2023-01-08T21:33:29;97787.72;;;7.34;100.00